Strawberry, Arkansas
Current Conditions -  °F | °C
As of 12:35 PM on Saturday 20 Dec 2014 (Local Time) from KARG Reporting Station
Overcast Overcast  
Wind Chill: 43°   Ceiling: 5000
Heat Index: 43°   Visibility: 5mi
Dew Point: 32°   Wind: 3mph
Humidity: 66%   Direction: 60°ENE
Pressure: 30.24"   Gusts: NA
Location:  35.97°N, 91.32°W
Report Text: KARG 201835Z AUTO 06003KT 5SM OVC050 06/00 A3024 RMK AO1
Loading
Personal Weather Stations






























Interactive Weather Map New forecast layout! Learn more

10-Day Weather Forecast

Advertisements
Track Severe Weather on mobile